sensor_id;sensor_type;location;lat;lon;timestamp;pressure;altitude;pressure_sealevel;temperature;humidity
5126;BME280;63008;53.112;8.896;2023-07-31T00:01:41;100732.00;;;16.21;100.00
5126;BME280;63008;53.112;8.896;2023-07-31T00:03:42;100729.25;;;16.21;100.00
5126;BME280;63008;53.112;8.896;2023-07-31T00:05:43;100720.94;;;16.21;100.00
5126;BME280;63008;53.112;8.896;2023-07-31T00:07:44;100723.38;;;16.26;100.00
5126;BME280;63008;53.112;8.896;2023-07-31T00:09:45;100719.88;;;16.29;100.00
5126;BME280;63008;53.112;8.896;2023-07-31T00:11:46;100719.88;;;16.29;100.00
5126;BME280;63008;53.112;8.896;2023-07-31T00:13:47;100729.78;;;16.30;100.00
5126;BME280;63008;53.112;8.896;2023-07-31T00:15:48;100718.75;;;16.33;100.00
5126;BME280;63008;53.112;8.896;2023-07-31T00:17:49;100714.38;;;16.32;100.00
5126;BME280;63008;53.112;8.896;2023-07-31T00:19:50;100718.31;;;16.31;100.00
5126;BME280;63008;53.112;8.896;2023-07-31T00:21:51;100708.44;;;16.34;100.00
5126;BME280;63008;53.112;8.896;2023-07-31T00:23:52;100707.72;;;16.37;100.00
5126;BME280;63008;53.112;8.896;2023-07-31T00:25:53;100710.50;;;16.37;100.00
5126;BME280;63008;53.112;8.896;2023-07-31T00:27:54;100719.25;;;16.39;100.00
5126;BME280;63008;53.112;8.896;2023-07-31T00:29:55;100708.53;;;16.37;100.00
5126;BME280;63008;53.112;8.896;2023-07-31T00:31:56;100708.53;;;16.37;100.00
5126;BME280;63008;53.112;8.896;2023-07-31T00:33:57;100708.91;;;16.36;100.00
5126;BME280;63008;53.112;8.896;2023-07-31T00:35:58;100714.91;;;16.38;100.00
5126;BME280;63008;53.112;8.896;2023-07-31T00:37:59;100708.53;;;16.37;100.00
5126;BME280;63008;53.112;8.896;2023-07-31T00:40:00;100703.81;;;16.38;100.00
5126;BME280;63008;53.112;8.896;2023-07-31T00:42:01;100705.34;;;16.35;100.00
5126;BME280;63008;53.112;8.896;2023-07-31T00:44:02;100704.19;;;16.36;100.00
5126;BME280;63008;53.112;8.896;2023-07-31T00:46:03;100703.00;;;16.37;100.00
5126;BME280;63008;53.112;8.896;2023-07-31T00:48:05;100697.38;;;16.34;100.00
5126;BME280;63008;53.112;8.896;2023-07-31T00:50:09;100699.72;;;16.32;100.00
5126;BME280;63008;53.112;8.896;2023-07-31T00:52:10;100696.59;;;16.33;100.00
5126;BME280;63008;53.112;8.896;2023-07-31T00:54:11;100697.38;;;16.34;100.00
5126;BME280;63008;53.112;8.896;2023-07-31T00:56:12;100694.94;;;16.29;100.00
5126;BME280;63008;53.112;8.896;2023-07-31T00:58:13;100695.69;;;16.26;100.00
5126;BME280;63008;53.112;8.896;2023-07-31T01:00:14;100698.47;;;16.26;100.00
5126;BME280;63008;53.112;8.896;2023-07-31T01:02:15;100691.75;;;16.27;100.00
5126;BME280;63008;53.112;8.896;2023-07-31T01:04:17;100690.50;;;16.24;100.00
5126;BME280;63008;53.112;8.896;2023-07-31T01:08:44;100680.19;;;16.21;100.00
5126;BME280;63008;53.112;8.896;2023-07-31T01:10:54;100682.19;;;16.24;100.00
5126;BME280;63008;53.112;8.896;2023-07-31T01:12:57;100691.69;;;16.23;100.00
5126;BME280;63008;53.112;8.896;2023-07-31T01:15:05;100682.16;;;16.21;100.00
5126;BME280;63008;53.112;8.896;2023-07-31T01:17:06;100680.19;;;16.21;100.00
5126;BME280;63008;53.112;8.896;2023-07-31T01:19:08;100673.47;;;16.22;100.00
5126;BME280;63008;53.112;8.896;2023-07-31T01:21:37;100674.69;;;16.25;100.00
5126;BME280;63008;53.112;8.896;2023-07-31T01:24:02;100674.28;;;16.23;100.00
5126;BME280;63008;53.112;8.896;2023-07-31T01:26:19;100679.06;;;16.26;100.00
5126;BME280;63008;53.112;8.896;2023-07-31T01:31:07;100692.16;;;16.29;100.00
5126;BME280;63008;53.112;8.896;2023-07-31T01:33:11;100697.22;;;16.23;100.00
5126;BME280;63008;53.112;8.896;2023-07-31T01:35:12;100694.84;;;16.22;100.00
5126;BME280;63008;53.112;8.896;2023-07-31T01:37:13;100688.13;;;16.23;100.00
5126;BME280;63008;53.112;8.896;2023-07-31T01:39:14;100688.56;;;16.25;100.00
5126;BME280;63008;53.112;8.896;2023-07-31T01:41:17;100677.06;;;16.23;100.00
5126;BME280;63008;53.112;8.896;2023-07-31T01:43:19;100677.09;;;16.26;100.00
5126;BME280;63008;53.112;8.896;2023-07-31T01:45:20;100663.63;;;16.25;100.00
5126;BME280;63008;53.112;8.896;2023-07-31T01:47:22;100665.59;;;16.24;100.00
5126;BME280;63008;53.112;8.896;2023-07-31T01:49:24;100673.53;;;16.26;100.00
5126;BME280;63008;53.112;8.896;2023-07-31T01:51:25;100661.59;;;16.22;100.00
5126;BME280;63008;53.112;8.896;2023-07-31T01:53:26;100660.38;;;16.19;100.00
5126;BME280;63008;53.112;8.896;2023-07-31T01:55:27;100650.13;;;16.23;100.00
5126;BME280;63008;53.112;8.896;2023-07-31T01:57:28;100641.75;;;16.20;100.00
5126;BME280;63008;53.112;8.896;2023-07-31T01:59:29;100651.16;;;16.12;100.00
5126;BME280;63008;53.112;8.896;2023-07-31T02:01:30;100648.31;;;16.08;100.00
5126;BME280;63008;53.112;8.896;2023-07-31T02:03:30;100644.63;;;15.97;100.00
5126;BME280;63008;53.112;8.896;2023-07-31T02:05:31;100646.91;;;15.92;100.00
5126;BME280;63008;53.112;8.896;2023-07-31T02:07:32;100636.59;;;15.92;100.00
5126;BME280;63008;53.112;8.896;2023-07-31T02:09:33;100639.63;;;15.84;100.00
5126;BME280;63008;53.112;8.896;2023-07-31T02:11:34;100643.16;;;15.81;100.00
5126;BME280;63008;53.112;8.896;2023-07-31T02:13:35;100637.94;;;15.76;100.00
5126;BME280;63008;53.112;8.896;2023-07-31T02:15:36;100635.44;;;15.67;100.00
5126;BME280;63008;53.112;8.896;2023-07-31T02:17:37;100640.53;;;15.65;100.00
5126;BME280;63008;53.112;8.896;2023-07-31T02:19:38;100634.16;;;15.61;100.00
5126;BME280;63008;53.112;8.896;2023-07-31T02:21:39;100629.72;;;15.57;100.00
5126;BME280;63008;53.112;8.896;2023-07-31T02:23:40;100627.28;;;15.52;100.00
5126;BME280;63008;53.112;8.896;2023-07-31T02:25:41;100625.22;;;15.49;100.00
5126;BME280;63008;53.112;8.896;2023-07-31T02:27:42;100614.91;;;15.46;100.00
5126;BME280;63008;53.112;8.896;2023-07-31T02:29:43;100610.50;;;15.41;100.00
5126;BME280;63008;53.112;8.896;2023-07-31T02:31:44;100614.03;;;15.42;100.00
5126;BME280;63008;53.112;8.896;2023-07-31T02:33:45;100609.69;;;15.41;100.00
5126;BME280;63008;53.112;8.896;2023-07-31T02:35:46;100612.03;;;15.39;100.00
5126;BME280;63008;53.112;8.896;2023-07-31T02:37:47;100613.19;;;15.38;100.00
5126;BME280;63008;53.112;8.896;2023-07-31T02:39:48;100615.53;;;15.36;100.00
5126;BME280;63008;53.112;8.896;2023-07-31T02:41:49;100617.47;;;15.35;100.00
5126;BME280;63008;53.112;8.896;2023-07-31T02:43:50;100620.63;;;15.34;100.00
5126;BME280;63008;53.112;8.896;2023-07-31T02:45:54;100615.03;;;15.30;100.00
5126;BME280;63008;53.112;8.896;2023-07-31T02:47:55;100608.34;;;15.31;100.00
5126;BME280;63008;53.112;8.896;2023-07-31T02:49:56;100608.69;;;15.30;100.00
5126;BME280;63008;53.112;8.896;2023-07-31T02:51:57;100611.47;;;15.30;100.00
5126;BME280;63008;53.112;8.896;2023-07-31T02:53:58;100605.16;;;15.29;100.00
5126;BME280;63008;53.112;8.896;2023-07-31T02:55:59;100605.47;;;15.28;100.00
5126;BME280;63008;53.112;8.896;2023-07-31T02:58:00;100604.75;;;15.31;100.00
5126;BME280;63008;53.112;8.896;2023-07-31T03:00:01;100609.88;;;15.29;100.00
5126;BME280;63008;53.112;8.896;2023-07-31T03:02:03;100611.00;;;15.28;100.00
5126;BME280;63008;53.112;8.896;2023-07-31T03:04:04;100612.91;;;15.24;100.00
5126;BME280;63008;53.112;8.896;2023-07-31T03:06:05;100618.88;;;15.26;100.00
5126;BME280;63008;53.112;8.896;2023-07-31T03:08:06;100621.19;;;15.24;100.00
5126;BME280;63008;53.112;8.896;2023-07-31T03:10:07;100610.22;;;15.27;100.00
5126;BME280;63008;53.112;8.896;2023-07-31T03:12:09;100612.13;;;15.23;100.00
5126;BME280;63008;53.112;8.896;2023-07-31T03:14:10;100617.19;;;15.21;100.00
5126;BME280;63008;53.112;8.896;2023-07-31T03:16:11;100610.47;;;15.19;100.00
5126;BME280;63008;53.112;8.896;2023-07-31T03:18:12;100602.22;;;15.22;100.00
5126;BME280;63008;53.112;8.896;2023-07-31T03:20:13;100601.78;;;15.20;100.00
5126;BME280;63008;53.112;8.896;2023-07-31T03:22:14;100601.78;;;15.20;100.00
5126;BME280;63008;53.112;8.896;2023-07-31T03:24:14;100604.19;;;15.22;100.00
5126;BME280;63008;53.112;8.896;2023-07-31T03:26:15;100607.69;;;15.19;100.00
5126;BME280;63008;53.112;8.896;2023-07-31T03:28:16;100593.88;;;15.19;100.00
5126;BME280;63008;53.112;8.896;2023-07-31T03:30:17;100600.56;;;15.18;100.00
5126;BME280;63008;53.112;8.896;2023-07-31T03:32:19;100601.34;;;15.18;100.00
5126;BME280;63008;53.112;8.896;2023-07-31T03:34:19;100603.34;;;15.18;100.00
5126;BME280;63008;53.112;8.896;2023-07-31T03:36:20;100598.22;;;15.20;100.00
5126;BME280;63008;53.112;8.896;2023-07-31T03:38:21;100603.34;;;15.18;100.00
5126;BME280;63008;53.112;8.896;2023-07-31T03:40:23;100600.94;;;15.16;100.00
5126;BME280;63008;53.112;8.896;2023-07-31T03:42:24;100597.00;;;15.17;100.00
5126;BME280;63008;53.112;8.896;2023-07-31T03:44:25;100598.16;;;15.16;100.00
5126;BME280;63008;53.112;8.896;2023-07-31T03:46:26;100597.41;;;15.19;100.00
5126;BME280;63008;53.112;8.896;2023-07-31T03:48:27;100593.00;;;15.15;100.00
5126;BME280;63008;53.112;8.896;2023-07-31T03:50:28;100591.47;;;15.17;100.00
5126;BME280;63008;53.112;8.896;2023-07-31T03:52:29;100590.28;;;15.18;100.00
5126;BME280;63008;53.112;8.896;2023-07-31T03:54:30;100590.69;;;15.17;100.00
5126;BME280;63008;53.112;8.896;2023-07-31T03:56:31;100594.59;;;15.16;100.00
5126;BME280;63008;53.112;8.896;2023-07-31T03:58:32;100593.44;;;15.17;100.00
5126;BME280;63008;53.112;8.896;2023-07-31T04:00:33;100587.91;;;15.17;100.00
5126;BME280;63008;53.112;8.896;2023-07-31T04:02:34;100591.03;;;15.15;100.00
5126;BME280;63008;53.112;8.896;2023-07-31T04:04:35;100589.88;;;15.16;100.00
5126;BME280;63008;53.112;8.896;2023-07-31T04:06:35;100590.28;;;15.18;100.00
5126;BME280;63008;53.112;8.896;2023-07-31T04:08:36;100591.38;;;15.14;100.00
5126;BME280;63008;53.112;8.896;2023-07-31T04:10:37;100592.19;;;15.14;100.00
5126;BME280;63008;53.112;8.896;2023-07-31T04:12:38;100594.91;;;15.11;100.00
5126;BME280;63008;53.112;8.896;2023-07-31T04:14:39;100593.00;;;15.15;100.00
5126;BME280;63008;53.112;8.896;2023-07-31T04:16:40;100590.25;;;15.15;100.00
5126;BME280;63008;53.112;8.896;2023-07-31T04:18:41;100585.84;;;15.14;100.00
5126;BME280;63008;53.112;8.896;2023-07-31T04:20:42;100585.50;;;15.15;100.00
5126;BME280;63008;53.112;8.896;2023-07-31T04:22:43;100581.97;;;15.15;100.00
5126;BME280;63008;53.112;8.896;2023-07-31T04:24:44;100584.75;;;15.18;100.00
5126;BME280;63008;53.112;8.896;2023-07-31T04:26:45;100577.72;;;15.21;100.00
5126;BME280;63008;53.112;8.896;2023-07-31T04:28:46;100581.25;;;15.21;100.00
5126;BME280;63008;53.112;8.896;2023-07-31T04:30:47;100578.94;;;15.23;100.00
5126;BME280;63008;53.112;8.896;2023-07-31T04:32:48;100568.25;;;15.22;100.00
5126;BME280;63008;53.112;8.896;2023-07-31T04:34:49;100575.44;;;15.26;100.00
5126;BME280;63008;53.112;8.896;2023-07-31T04:36:50;100563.56;;;15.26;100.00
5126;BME280;63008;53.112;8.896;2023-07-31T04:38:51;100566.75;;;15.28;100.00
5126;BME280;63008;53.112;8.896;2023-07-31T04:40:52;100559.72;;;15.30;100.00
5126;BME280;63008;53.112;8.896;2023-07-31T04:42:53;100561.69;;;15.30;100.00
5126;BME280;63008;53.112;8.896;2023-07-31T04:44:54;100561.63;;;15.26;100.00
5126;BME280;63008;53.112;8.896;2023-07-31T04:46:55;100565.53;;;15.25;100.00
5126;BME280;63008;53.112;8.896;2023-07-31T04:48:56;100555.69;;;15.28;100.00
5126;BME280;63008;53.112;8.896;2023-07-31T04:50:57;100551.06;;;15.32;100.00
5126;BME280;63008;53.112;8.896;2023-07-31T04:52:58;100547.84;;;15.30;100.00
5126;BME280;63008;53.112;8.896;2023-07-31T04:54:59;100555.69;;;15.28;100.00
5126;BME280;63008;53.112;8.896;2023-07-31T04:57:00;100552.59;;;15.29;100.00
5126;BME280;63008;53.112;8.896;2023-07-31T04:59:01;100544.72;;;15.31;100.00
5126;BME280;63008;53.112;8.896;2023-07-31T05:01:02;100549.44;;;15.31;100.00
5126;BME280;63008;53.112;8.896;2023-07-31T05:03:03;100549.53;;;15.34;100.00
5126;BME280;63008;53.112;8.896;2023-07-31T05:05:04;100546.00;;;15.37;100.00
5126;BME280;63008;53.112;8.896;2023-07-31T05:07:05;100548.31;;;15.32;100.00
5126;BME280;63008;53.112;8.896;2023-07-31T05:09:06;100545.97;;;15.34;100.00
5126;BME280;63008;53.112;8.896;2023-07-31T05:11:07;100546.00;;;15.37;100.00
5126;BME280;63008;53.112;8.896;2023-07-31T05:13:08;100542.88;;;15.39;100.00
5126;BME280;63008;53.112;8.896;2023-07-31T05:15:09;100545.22;;;15.37;100.00
5126;BME280;63008;53.112;8.896;2023-07-31T05:17:10;100546.06;;;15.41;100.00
5126;BME280;63008;53.112;8.896;2023-07-31T05:19:11;100537.53;;;15.49;100.00
5126;BME280;63008;53.112;8.896;2023-07-31T05:21:12;100543.41;;;15.48;100.00
5126;BME280;63008;53.112;8.896;2023-07-31T05:23:13;100539.44;;;15.45;100.00
5126;BME280;63008;53.112;8.896;2023-07-31T05:25:14;100540.63;;;15.48;100.00
5126;BME280;63008;53.112;8.896;2023-07-31T05:27:15;100546.13;;;15.44;100.00
5126;BME280;63008;53.112;8.896;2023-07-31T05:29:19;100543.81;;;15.46;100.00
5126;BME280;63008;53.112;8.896;2023-07-31T05:31:20;100542.56;;;15.44;100.00
5126;BME280;63008;53.112;8.896;2023-07-31T05:33:23;100540.59;;;15.44;100.00
5126;BME280;63008;53.112;8.896;2023-07-31T05:35:23;100539.38;;;15.42;100.00
5126;BME280;63008;53.112;8.896;2023-07-31T05:37:24;100538.94;;;15.40;100.00
5126;BME280;63008;53.112;8.896;2023-07-31T05:39:25;100535.00;;;15.41;100.00
5126;BME280;63008;53.112;8.896;2023-07-31T05:41:26;100531.91;;;15.46;100.00
5126;BME280;63008;53.112;8.896;2023-07-31T05:43:27;100532.34;;;15.48;100.00
5126;BME280;63008;53.112;8.896;2023-07-31T05:45:28;100528.41;;;15.49;100.00
5126;BME280;63008;53.112;8.896;2023-07-31T05:47:29;100525.28;;;15.50;100.00
5126;BME280;63008;53.112;8.896;2023-07-31T05:49:30;100521.41;;;15.55;100.00
5126;BME280;63008;53.112;8.896;2023-07-31T05:51:31;100517.47;;;15.56;100.00
5126;BME280;63008;53.112;8.896;2023-07-31T05:53:32;100511.94;;;15.56;100.00
5126;BME280;63008;53.112;8.896;2023-07-31T05:55:33;100512.41;;;15.61;100.00
5126;BME280;63008;53.112;8.896;2023-07-31T05:57:34;100514.00;;;15.62;100.00
5126;BME280;63008;53.112;8.896;2023-07-31T05:59:35;100511.66;;;15.64;100.00
5126;BME280;63008;53.112;8.896;2023-07-31T06:01:36;100503.44;;;15.68;100.00
5126;BME280;63008;53.112;8.896;2023-07-31T06:03:37;100506.13;;;15.64;100.00
5126;BME280;63008;53.112;8.896;2023-07-31T06:05:38;100504.56;;;15.67;100.00
5126;BME280;63008;53.112;8.896;2023-07-31T06:07:39;100504.97;;;15.65;100.00
5126;BME280;63008;53.112;8.896;2023-07-31T06:09:40;100510.97;;;15.71;100.00
5126;BME280;63008;53.112;8.896;2023-07-31T06:11:41;100508.22;;;15.71;100.00
5126;BME280;63008;53.112;8.896;2023-07-31T06:13:42;100509.75;;;15.68;100.00
5126;BME280;63008;53.112;8.896;2023-07-31T06:15:45;100501.44;;;15.68;100.00
5126;BME280;63008;53.112;8.896;2023-07-31T06:17:46;100509.81;;;15.72;100.00
5126;BME280;63008;53.112;8.896;2023-07-31T06:19:47;100508.25;;;15.74;100.00
5126;BME280;63008;53.112;8.896;2023-07-31T06:21:48;100507.88;;;15.76;100.00
5126;BME280;63008;53.112;8.896;2023-07-31T06:23:49;100511.81;;;15.75;100.00
5126;BME280;63008;53.112;8.896;2023-07-31T06:25:50;100507.06;;;15.75;100.00
5126;BME280;63008;53.112;8.896;2023-07-31T06:27:51;100508.28;;;15.78;100.00
5126;BME280;63008;53.112;8.896;2023-07-31T06:29:52;100502.41;;;15.79;100.00
5126;BME280;63008;53.112;8.896;2023-07-31T06:31:53;100497.66;;;15.80;100.00
5126;BME280;63008;53.112;8.896;2023-07-31T06:33:53;100491.69;;;15.78;100.00
5126;BME280;63008;53.112;8.896;2023-07-31T06:35:54;100496.06;;;15.79;100.00
5126;BME280;63008;53.112;8.896;2023-07-31T06:37:55;100487.69;;;15.75;100.00
5126;BME280;63008;53.112;8.896;2023-07-31T06:39:56;100484.94;;;15.75;100.00
5126;BME280;63008;53.112;8.896;2023-07-31T06:41:57;100480.63;;;15.78;100.00
5126;BME280;63008;53.112;8.896;2023-07-31T06:43:58;100488.56;;;15.79;100.00
5126;BME280;63008;53.112;8.896;2023-07-31T06:46:04;100489.03;;;15.85;100.00
5126;BME280;63008;53.112;8.896;2023-07-31T06:48:06;100477.97;;;15.85;100.00
5126;BME280;63008;53.112;8.896;2023-07-31T06:50:07;100476.78;;;15.86;100.00
5126;BME280;63008;53.112;8.896;2023-07-31T06:52:08;100476.78;;;15.86;100.00
5126;BME280;63008;53.112;8.896;2023-07-31T06:54:10;100478.00;;;15.88;100.00
5126;BME280;63008;53.112;8.896;2023-07-31T06:56:11;100464.97;;;15.89;100.00
5126;BME280;63008;53.112;8.896;2023-07-31T06:58:12;100468.94;;;15.91;100.00
5126;BME280;63008;53.112;8.896;2023-07-31T07:00:14;100465.00;;;15.92;100.00
5126;BME280;63008;53.112;8.896;2023-07-31T07:02:15;100462.28;;;15.96;100.00
5126;BME280;63008;53.112;8.896;2023-07-31T07:04:16;100455.97;;;15.95;100.00
5126;BME280;63008;53.112;8.896;2023-07-31T07:06:17;100463.44;;;15.95;100.00
5126;BME280;63008;53.112;8.896;2023-07-31T07:08:18;100460.31;;;15.96;100.00
5126;BME280;63008;53.112;8.896;2023-07-31T07:10:19;100457.91;;;15.95;100.00
5126;BME280;63008;53.112;8.896;2023-07-31T07:12:20;100454.81;;;16.00;100.00
5126;BME280;63008;53.112;8.896;2023-07-31T07:14:21;100458.03;;;16.05;100.00
5126;BME280;63008;53.112;8.896;2023-07-31T07:16:22;100461.34;;;16.14;100.00
5126;BME280;63008;53.112;8.896;2023-07-31T07:18:23;100460.53;;;16.14;100.00
5126;BME280;63008;53.112;8.896;2023-07-31T07:20:25;100458.97;;;16.16;100.00
5126;BME280;63008;53.112;8.896;2023-07-31T07:22:26;100457.00;;;16.17;100.00
5126;BME280;63008;53.112;8.896;2023-07-31T07:24:28;100450.66;;;16.16;100.00
5126;BME280;63008;53.112;8.896;2023-07-31T07:26:29;100449.97;;;16.26;100.00
5126;BME280;63008;53.112;8.896;2023-07-31T07:28:30;100449.25;;;16.29;100.00
5126;BME280;63008;53.112;8.896;2023-07-31T07:30:31;100450.56;;;16.39;100.00
5126;BME280;63008;53.112;8.896;2023-07-31T07:32:32;100444.97;;;16.35;100.00
5126;BME280;63008;53.112;8.896;2023-07-31T07:34:33;100450.22;;;16.44;100.00
5126;BME280;63008;53.112;8.896;2023-07-31T07:36:34;100439.50;;;16.42;100.00
5126;BME280;63008;53.112;8.896;2023-07-31T07:38:35;100447.78;;;16.39;100.00
5126;BME280;63008;53.112;8.896;2023-07-31T07:40:40;100442.66;;;16.41;100.00
5126;BME280;63008;53.112;8.896;2023-07-31T07:42:41;100447.41;;;16.40;100.00
5126;BME280;63008;53.112;8.896;2023-07-31T07:44:42;100447.44;;;16.44;100.00
5126;BME280;63008;53.112;8.896;2023-07-31T07:46:43;100451.81;;;16.45;100.00
5126;BME280;63008;53.112;8.896;2023-07-31T07:48:44;100434.00;;;16.46;100.00
5126;BME280;63008;53.112;8.896;2023-07-31T07:50:45;100442.31;;;16.46;100.00
5126;BME280;63008;53.112;8.896;2023-07-31T07:52:46;100447.09;;;16.49;100.00
5126;BME280;63008;53.112;8.896;2023-07-31T07:54:47;100438.00;;;16.48;100.00
5126;BME280;63008;53.112;8.896;2023-07-31T07:56:48;100438.81;;;16.52;100.00
5126;BME280;63008;53.112;8.896;2023-07-31T07:58:49;100442.38;;;16.52;100.00
5126;BME280;63008;53.112;8.896;2023-07-31T08:00:51;100448.31;;;16.54;100.00
5126;BME280;63008;53.112;8.896;2023-07-31T08:02:52;100442.00;;;16.54;100.00
5126;BME280;63008;53.112;8.896;2023-07-31T08:04:53;100437.66;;;16.53;100.00
5126;BME280;63008;53.112;8.896;2023-07-31T08:06:54;100437.69;;;16.57;100.00
5126;BME280;63008;53.112;8.896;2023-07-31T08:08:55;100433.75;;;16.61;100.00
5126;BME280;63008;53.112;8.896;2023-07-31T08:10:56;100425.84;;;16.63;100.00
5126;BME280;63008;53.112;8.896;2023-07-31T08:12:57;100434.25;;;16.70;100.00
5126;BME280;63008;53.112;8.896;2023-07-31T08:14:58;100427.13;;;16.72;100.00
5126;BME280;63008;53.112;8.896;2023-07-31T08:17:01;100424.34;;;16.72;100.00
5126;BME280;63008;53.112;8.896;2023-07-31T08:19:02;100431.13;;;16.75;100.00
5126;BME280;63008;53.112;8.896;2023-07-31T08:21:03;100431.56;;;16.80;100.00
5126;BME280;63008;53.112;8.896;2023-07-31T08:23:04;100423.22;;;16.77;100.00
5126;BME280;63008;53.112;8.896;2023-07-31T08:25:05;100415.72;;;16.81;100.00
5126;BME280;63008;53.112;8.896;2023-07-31T08:27:07;100418.13;;;16.82;100.00
5126;BME280;63008;53.112;8.896;2023-07-31T08:29:08;100424.88;;;16.85;100.00
5126;BME280;63008;53.112;8.896;2023-07-31T08:31:09;100429.63;;;16.84;100.00
5126;BME280;63008;53.112;8.896;2023-07-31T08:33:11;100421.34;;;16.88;100.00
5126;BME280;63008;53.112;8.896;2023-07-31T08:35:12;100411.88;;;16.92;100.00
5126;BME280;63008;53.112;8.896;2023-07-31T08:37:13;100410.31;;;16.98;100.00
5126;BME280;63008;53.112;8.896;2023-07-31T08:39:14;100407.97;;;17.00;100.00
5126;BME280;63008;53.112;8.896;2023-07-31T08:41:15;100411.53;;;17.04;100.00
5126;BME280;63008;53.112;8.896;2023-07-31T08:43:18;100408.78;;;17.04;100.00
5126;BME280;63008;53.112;8.896;2023-07-31T08:45:20;100398.88;;;17.03;100.00
5126;BME280;63008;53.112;8.896;2023-07-31T08:47:22;100402.84;;;17.06;100.00
5126;BME280;63008;53.112;8.896;2023-07-31T08:49:24;100399.63;;;17.00;100.00
5126;BME280;63008;53.112;8.896;2023-07-31T08:51:26;100405.59;;;17.02;100.00
5126;BME280;63008;53.112;8.896;2023-07-31T08:53:27;100398.06;;;16.99;100.00
5126;BME280;63008;53.112;8.896;2023-07-31T08:55:28;100406.03;;;17.08;100.00
5126;BME280;63008;53.112;8.896;2023-07-31T08:57:29;100403.31;;;17.15;100.00
5126;BME280;63008;53.112;8.896;2023-07-31T08:59:31;100406.06;;;17.11;100.00
5126;BME280;63008;53.112;8.896;2023-07-31T09:01:37;100402.16;;;17.19;100.00
5126;BME280;63008;53.112;8.896;2023-07-31T09:03:42;100403.34;;;17.18;100.00
5126;BME280;63008;53.112;8.896;2023-07-31T09:05:46;100400.19;;;17.20;100.00
5126;BME280;63008;53.112;8.896;2023-07-31T09:07:48;100404.88;;;17.16;100.00
5126;BME280;63008;53.112;8.896;2023-07-31T09:09:50;100408.06;;;17.14;100.00
5126;BME280;63008;53.112;8.896;2023-07-31T09:11:52;100414.78;;;17.13;100.00
5126;BME280;63008;53.112;8.896;2023-07-31T09:13:53;100404.50;;;17.17;100.00
5126;BME280;63008;53.112;8.896;2023-07-31T09:15:57;100406.50;;;17.20;100.00
5126;BME280;63008;53.112;8.896;2023-07-31T09:18:03;100409.75;;;17.29;100.00
5126;BME280;63008;53.112;8.896;2023-07-31T09:20:17;100405.34;;;17.25;100.00
5126;BME280;63008;53.112;8.896;2023-07-31T09:22:31;100406.13;;;17.25;100.00
5126;BME280;63008;53.112;8.896;2023-07-31T09:24:34;100401.78;;;17.21;100.00
5126;BME280;63008;53.112;8.896;2023-07-31T09:26:36;100402.97;;;17.23;100.00
5126;BME280;63008;53.112;8.896;2023-07-31T09:28:37;100400.59;;;17.25;100.00
5126;BME280;63008;53.112;8.896;2023-07-31T09:30:51;100399.41;;;17.23;100.00
5126;BME280;63008;53.112;8.896;2023-07-31T09:33:04;100397.81;;;17.22;100.00
5126;BME280;63008;53.112;8.896;2023-07-31T09:35:34;100394.22;;;17.18;100.00
5126;BME280;63008;53.112;8.896;2023-07-31T09:37:35;100391.03;;;17.16;100.00
5126;BME280;63008;53.112;8.896;2023-07-31T09:39:47;100389.44;;;17.15;100.00
5126;BME280;63008;53.112;8.896;2023-07-31T09:41:54;100391.47;;;17.18;100.00
5126;BME280;63008;53.112;8.896;2023-07-31T09:43:55;100388.69;;;17.18;100.00
5126;BME280;63008;53.112;8.896;2023-07-31T09:45:57;100386.31;;;17.23;100.00
5126;BME280;63008;53.112;8.896;2023-07-31T09:47:58;100383.53;;;17.20;100.00
5126;BME280;63008;53.112;8.896;2023-07-31T09:49:59;100382.34;;;17.21;100.00
5126;BME280;63008;53.112;8.896;2023-07-31T09:52:00;100382.72;;;17.19;100.00
5126;BME280;63008;53.112;8.896;2023-07-31T09:54:01;100382.34;;;17.24;100.00
5126;BME280;63008;53.112;8.896;2023-07-31T09:56:02;100382.06;;;17.36;100.00
5126;BME280;63008;53.112;8.896;2023-07-31T09:58:07;100368.94;;;17.33;100.00
5126;BME280;63008;53.112;8.896;2023-07-31T10:00:09;100370.63;;;17.45;100.00
5126;BME280;63008;53.112;8.896;2023-07-31T10:02:15;100365.16;;;17.62;100.00
5126;BME280;63008;53.112;8.896;2023-07-31T10:04:17;100358.47;;;17.77;100.00
5126;BME280;63008;53.112;8.896;2023-07-31T10:06:21;100355.75;;;17.88;100.00
5126;BME280;63008;53.112;8.896;2023-07-31T10:08:27;100355.78;;;17.98;100.00
5126;BME280;63008;53.112;8.896;2023-07-31T10:10:31;100345.81;;;17.90;100.00
5126;BME280;63008;53.112;8.896;2023-07-31T10:12:33;100344.59;;;17.81;100.00
5126;BME280;63008;53.112;8.896;2023-07-31T10:14:35;100352.56;;;17.82;100.00
5126;BME280;63008;53.112;8.896;2023-07-31T10:16:38;100344.59;;;17.77;100.00
5126;BME280;63008;53.112;8.896;2023-07-31T10:18:39;100336.63;;;17.65;100.00
5126;BME280;63008;53.112;8.896;2023-07-31T10:20:41;100342.53;;;17.60;100.00
5126;BME280;63008;53.112;8.896;2023-07-31T10:22:46;100342.16;;;17.62;100.00
5126;BME280;63008;53.112;8.896;2023-07-31T10:24:48;100339.38;;;17.62;100.00
5126;BME280;63008;53.112;8.896;2023-07-31T10:26:50;100340.56;;;17.61;100.00
5126;BME280;63008;53.112;8.896;2023-07-31T10:28:52;100338.97;;;17.60;100.00
5126;BME280;63008;53.112;8.896;2023-07-31T10:30:54;100343.31;;;17.57;100.00
5126;BME280;63008;53.112;8.896;2023-07-31T10:32:55;100338.19;;;17.63;100.00
5126;BME280;63008;53.112;8.896;2023-07-31T10:34:57;100333.44;;;17.63;100.00
5126;BME280;63008;53.112;8.896;2023-07-31T10:39:42;100328.69;;;17.64;100.00
5126;BME280;63008;53.112;8.896;2023-07-31T10:41:43;100328.28;;;17.69;100.00
5126;BME280;63008;53.112;8.896;2023-07-31T10:43:46;100322.78;;;17.76;100.00
5126;BME280;63008;53.112;8.896;2023-07-31T10:45:48;100318.44;;;17.82;100.00